Skip to main content.

Nearby METAR Reports

 

KJYR - York, Nebraska, USA
Distance from station: NW 27mi, 43km
Updated: Wed, 25-Apr-2018 6:55am CDT

 Wind from N
Wind: N 10 mph , 17 km/h
Temperature: 39°F , 4°C
Wind Chill: 32°F , 0°C
Dew Point: 39°F , 4°C
Humidity: 100%
Barometer: 30.27 inHg , 1025.1 hPa
Visibility: 10 miles , 16 km
2018/04/25 11:55 KJYR 251155Z AUTO 35009KT 10SM 04/04 A3027 RMK AO2
KLNK - Lincoln, Nebraska, USA
Distance from station: ENE 27mi, 44km
Updated: Wed, 25-Apr-2018 6:54am CDT
Overcast
Overcast
 Wind from N
Wind: N 17 mph , 28 km/h
Temperature: 43°F , 6°C
Wind Chill: 35°F , 2°C
Dew Point: 39°F , 4°C
Humidity: 87%
Barometer: 30.25 inHg , 1024.4 hPa
Clouds: Overcast
Visibility: 10 miles , 16 km
Cloud details: Overcast 4100 ft
2018/04/25 11:54 KLNK 251154Z 36015KT 10SM OVC041 06/04 A3025 RMK AO2 RAE45 SLP246 P0000 60006 70013 T00610039 10078 20061 53000
 
KBIE - Beatrice Municip, Nebraska, USA
Distance from station: SE 36mi, 58km
Updated: Wed, 25-Apr-2018 6:55am CDT
Light rain, Overcast
Light rain, Overcast
 Wind from N
Wind: N 16 mph , 26 km/h
Temperature: 45°F , 7°C
Wind Chill: 38°F , 3°C
Dew Point: 43°F , 6°C
Humidity: 93%
Barometer: 30.23 inHg , 1023.7 hPa
Summary: Light Rain
Clouds: Overcast
Visibility: 7 miles , 11 km
Cloud details: Overcast 900 ft
2018/04/25 11:55 KBIE 251155Z AUTO 36014KT 7SM -RA OVC009 07/06 A3023 RMK AO2 P0002 60009 70013 T00680060 10104 20068
KHJH - Hebron Muni, Nebraska, USA
Distance from station: SSW 40mi, 64km
Updated: Wed, 25-Apr-2018 6:55am CDT
Light rain, Overcast
Light rain, Overcast
 Wind from N
Wind: N 10 mph , 17 km/h
Temperature: 43°F , 6°C
Wind Chill: 37°F , 3°C
Dew Point: 41°F , 5°C
Humidity: 93%
Barometer: 30.25 inHg , 1024.4 hPa
Summary: Light Rain
Clouds: Overcast
Visibility: 7 miles , 11 km
Cloud details: Overcast 900 ft
2018/04/25 11:55 KHJH 251155Z AUTO 36009KT 7SM -RA OVC009 06/05 A3025 RMK AO2 P0006 60018 70021 T00600050 10086 20060
 
KAUH - Aurora, Nebraska, USA
Distance from station: WNW 44mi, 70km
Updated: Wed, 25-Apr-2018 6:55am CDT
Light rain, Overcast
Light rain, Overcast
 Wind from N
Wind: N 16 mph , 26 km/h
Temperature: 39°F , 4°C
Wind Chill: 30°F , -1°C
Dew Point: 37°F , 3°C
Humidity: 93%
Barometer: 30.29 inHg , 1025.7 hPa
Summary: Light Rain
Clouds: Overcast
Visibility: 10 miles , 16 km
Cloud details: Mostly Cloudy 1200 ft
Mostly Cloudy 3000 ft
Overcast 4600 ft
2018/04/25 11:55 KAUH 251155Z AUTO 36014KT 10SM -RA BKN012 BKN030 OVC046 04/03 A3029 RMK AO2 P0002 60003 70016 T00410030 10057 20041
KAHQ - Wahoo, Nebraska, USA
Distance from station: NE 51mi, 82km
Updated: Wed, 25-Apr-2018 6:55am CDT
Light rain, Overcast
Light rain, Overcast
 Wind from N
Wind: N 14 mph , 22 km/h
Temperature: 45°F , 7°C
Wind Chill: 39°F , 4°C
Dew Point: 37°F , 3°C
Humidity: 76%
Barometer: 30.25 inHg , 1024.4 hPa
Summary: Light Rain
Clouds: Overcast
Visibility: 10 miles , 16 km
Cloud details: Partly Cloudy 4900 ft
Overcast 6000 ft
2018/04/25 11:55 KAHQ 251155Z AUTO 36012KT 10SM -RA SCT049 OVC060 07/03 A3025 RMK AO2 70004 T00650033 10083 20065
 
KOLU - Columbus Muni, Nebraska, USA
Distance from station: N 55mi, 88km
Updated: Wed, 25-Apr-2018 6:56am CDT
Overcast
Overcast
 Wind from N
Wind: N 10 mph , 17 km/h
Temperature: 43°F , 6°C
Wind Chill: 37°F , 3°C
Dew Point: 37°F , 3°C
Humidity: 81%
Barometer: 30.28 inHg , 1025.4 hPa
Clouds: Overcast
Visibility: 10 miles , 16 km
Cloud details: Mostly Cloudy 3400 ft
Overcast 4400 ft
2018/04/25 11:56 KOLU 251156Z AUTO 35009KT 10SM BKN034 OVC044 06/03 A3028 RMK AO2 SLP264 60000 70021 T00560028 10067 20050 52002
KGRI - Grand Island, Nebraska, USA
Distance from station: WNW 61mi, 99km
Updated: Wed, 25-Apr-2018 6:53am CDT
Light rain, Overcast
Light rain, Overcast
 Wind from N
Wind: N 10 mph , 17 km/h
Temperature: 39°F , 4°C
Wind Chill: 32°F , 0°C
Dew Point: 37°F , 3°C
Humidity: 93%
Barometer: 30.30 inHg , 1026.1 hPa
Summary: Light Rain
Clouds: Overcast
Visibility: 10 miles , 16 km
Cloud details: Few Clouds 1800 ft
Overcast 2600 ft
2018/04/25 11:53 KGRI 251153Z AUTO 35009KT 10SM -RA FEW018 OVC026 04/03 A3030 RMK AO2 RAB04 SLP275 P0001 60001 70024 T00440028 10056 20044 52003
 
KHSI - Hastings, Nebraska, USA
Distance from station: W 64mi, 103km
Updated: Wed, 25-Apr-2018 6:53am CDT
Overcast
Overcast
 Wind from N
Wind: N 15 mph , 24 km/h
Temperature: 39°F , 4°C
Wind Chill: 31°F , -1°C
Dew Point: 37°F , 3°C
Humidity: 93%
Barometer: 30.29 inHg , 1025.7 hPa
Clouds: Overcast
Visibility: 10 miles , 16 km
Cloud details: Mostly Cloudy 1400 ft
Overcast 2000 ft
2018/04/25 11:53 KHSI 251153Z AUTO 36013KT 10SM BKN014 OVC020 04/03 A3029 RMK AO2 RAB01E08 SLP266 P0000 60000 70028 T00440033 10056 20044 55001
KFET - Fremont Muni Arp, Nebraska, USA
Distance from station: NNE 66mi, 106km
Updated: Wed, 25-Apr-2018 6:55am CDT
Overcast
Overcast
 Wind from N
Wind: N 5 mph , 7 km/h
Temperature: 45°F , 7°C
Wind Chill: 42°F , 6°C
Dew Point: 39°F , 4°C
Humidity: 81%
Barometer: 30.26 inHg , 1024.7 hPa
Clouds: Overcast
Visibility: 10 miles , 16 km
Cloud details: Overcast 5000 ft
2018/04/25 11:55 KFET 251155Z AUTO 36004KT 10SM OVC050 07/04 A3026 RMK AO2 70004 T00670036 10081 20066
 
KMLE - Omaha/Millard, Nebraska, USA
Distance from station: NE 69mi, 110km
Updated: Wed, 25-Apr-2018 6:55am CDT
Rain, Overcast
Rain, Overcast
 Wind from NNW
Wind: NNW 9 mph , 15 km/h
Temperature: 45°F , 7°C
Wind Chill: 40°F , 4°C
Dew Point: 41°F , 5°C
Humidity: 87%
Barometer: 30.24 inHg , 1024 hPa
Summary: Rain
Clouds: Overcast
Visibility: 7 miles , 11 km
Cloud details: Partly Cloudy 4900 ft
Overcast 5500 ft
2018/04/25 11:55 KMLE 251155Z AUTO 34008KT 7SM RA SCT049 OVC055 07/05 A3024 RMK AO2 P0009 60011 70015 T00700046 10103 20070
KPMV - Plattsmouth Muni, Nebraska, USA
Distance from station: ENE 71mi, 114km
Updated: Wed, 25-Apr-2018 6:55am CDT
Light rain, Overcast
Light rain, Overcast
 Wind from NNW
Wind: NNW 12 mph , 19 km/h
Temperature: 45°F , 7°C
Wind Chill: 39°F , 4°C
Dew Point: 43°F , 6°C
Humidity: 93%
Barometer: 30.22 inHg , 1023.4 hPa
Summary: Light Rain
Clouds: Overcast
Visibility: 7 miles , 11 km
Cloud details: Partly Cloudy 5500 ft
Overcast 6500 ft
2018/04/25 11:55 KPMV 251155Z AUTO 34010KT 7SM -RA SCT055 OVC065 07/06 A3022 RMK AO2 P0001 60001 70002 T00690059 10098 20069
 
KAFK - Nebraska City, Nebraska, USA
Distance from station: E 72mi, 116km
Updated: Wed, 25-Apr-2018 6:55am CDT
Light rain, Overcast
Light rain, Overcast
 Wind from N
Wind: N 12 mph , 19 km/h
Temperature: 45°F , 7°C
Wind Chill: 39°F , 4°C
Dew Point: 45°F , 7°C
Humidity: 100%
Barometer: 30.20 inHg , 1022.7 hPa
Summary: Light Rain
Clouds: Overcast
Visibility: 10 miles , 16 km
Cloud details: Partly Cloudy 800 ft
Overcast 4400 ft
2018/04/25 11:55 KAFK 251155Z AUTO 36010KT 10SM -RA SCT008 OVC044 07/07 A3020 RMK AO2 T00730073 10103 20073
KOFF - Offutt Afb/Belle, Nebraska, USA
Distance from station: ENE 75mi, 121km
Updated: Wed, 25-Apr-2018 6:56am CDT
Light rain, Overcast
Light rain, Overcast
 Wind from NNW
Wind: NNW 9 mph , 15 km/h
Temperature: 45°F , 7°C
Wind Chill: 40°F , 4°C
Dew Point: 41°F , 5°C
Humidity: 87%
Barometer: 30.22 inHg , 1023.4 hPa
Summary: Light Rain
Clouds: Overcast
Visibility: 10 miles , 16 km
Cloud details: Overcast 5000 ft
2018/04/25 11:56 KOFF 251156Z 34008KT 10SM -RA OVC050 07/05 A3022 RMK AO2A SLP241 P0002 60002 70004 T00700051 10097 20070 52008 $
 
KBTA - Blair Muni, Nebraska, USA
Distance from station: NE 78mi, 125km
Updated: Wed, 25-Apr-2018 6:55am CDT
Light rain, Overcast
Light rain, Overcast
 Wind from NNW
Wind: NNW 8 mph , 13 km/h
Temperature: 43°F , 6°C
Wind Chill: 38°F , 3°C
Dew Point: 37°F , 3°C
Humidity: 81%
Barometer: 30.24 inHg , 1024 hPa
Summary: Light Rain
Clouds: Overcast
Visibility: 10 miles , 16 km
Cloud details: Overcast 5000 ft
2018/04/25 11:55 KBTA 251155Z AUTO 34007KT 10SM -RA OVC050 06/03 A3024 RMK AO2 70006 T00580031 10081 20058
KCNK - Concordia, Kansas, USA
Distance from station: SSW 80mi, 129km
Updated: Wed, 25-Apr-2018 6:55am CDT
Rain, Mist, Overcast
Rain, Mist, Overcast
 Wind from N
Wind: N 12 mph , 19 km/h
Temperature: 43°F , 6°C
Wind Chill: 37°F , 3°C
Dew Point: 41°F , 5°C
Humidity: 93%
Barometer: 30.23 inHg , 1023.7 hPa
Summary: Rain, Mist
Clouds: Overcast
Visibility: 6 miles , 10 km
Cloud details: Overcast 800 ft
2018/04/25 11:55 KCNK 251155Z AUTO 36010KT 6SM RA BR OVC008 06/05 A3023 RMK AO2 CIG 005V012 SLP241 P0009 60018 70022 T00610050 10083 20061 55000
 
KOMA - Omaha/Eppley, Nebraska, USA
Distance from station: NE 82mi, 133km
Updated: Wed, 25-Apr-2018 6:52am CDT
Light rain, Overcast
Light rain, Overcast
 Wind from NNW
Wind: NNW 14 mph , 22 km/h
Temperature: 45°F , 7°C
Wind Chill: 39°F , 4°C
Dew Point: 39°F , 4°C
Humidity: 81%
Barometer: 30.23 inHg , 1023.7 hPa
Summary: Light Rain
Clouds: Overcast
Visibility: 7 miles , 11 km
Cloud details: Overcast 6000 ft
2018/04/25 11:52 KOMA 251152Z 34012KT 7SM -RA OVC060 07/04 A3023 RMK AO2 RAB1054 SLP240 P0003 60003 70007 T00670044 10100 20067 53010
KBVN - Albion Muni, Nebraska, USA
Distance from station: NNW 86mi, 138km
Updated: Wed, 25-Apr-2018 6:55am CDT
Overcast
Overcast
 Wind from NNW
Wind: NNW 9 mph , 15 km/h
Temperature: 41°F , 5°C
Wind Chill: 35°F , 2°C
Dew Point: 36°F , 2°C
Humidity: 81%
Barometer: 30.30 inHg , 1026.1 hPa
Clouds: Overcast
Visibility: 10 miles , 16 km
Cloud details: Overcast 4200 ft
2018/04/25 11:55 KBVN 251155Z AUTO 33008KT 10SM OVC042 05/02 A3030 RMK AO2 60001 70027 T00510024 10057 20047
 
KCBF - Council Bluffs, Iowa, USA
Distance from station: ENE 87mi, 139km
Updated: Tue, 24-Apr-2018 11:55pm CDT
NOT Current
Overcast
Overcast
 Wind from N
Wind: N 10 mph , 17 km/h
Temperature: 48°F , 9°C
Wind Chill: 44°F , 7°C
Dew Point: 48°F , 9°C
Humidity: 100%
Barometer: 30.21 inHg , 1023 hPa
Clouds: Overcast
Visibility: 10 miles , 16 km
Cloud details: Mostly Cloudy 6000 ft
Overcast 7000 ft
2018/04/25 04:55 KCBF 250455Z AUTO 36009KT 10SM BKN060 OVC070 09/09 A3021 RMK AO2
KOFK - Norfolk, Nebraska, USA
Distance from station: N 92mi, 148km
Updated: Wed, 25-Apr-2018 6:56am CDT
Overcast
Overcast
 Wind from NNW
Wind: NNW 9 mph , 15 km/h
Temperature: 39°F , 4°C
Wind Chill: 33°F , 1°C
Dew Point: 37°F , 3°C
Humidity: 93%
Barometer: 30.28 inHg , 1025.4 hPa
Clouds: Overcast
Visibility: 10 miles , 16 km
Cloud details: Overcast 7500 ft
2018/04/25 11:56 KOFK 251156Z AUTO 33008KT 10SM OVC075 04/03 A3028 RMK AO2 SLP262 60007 70032 T00440028 10061 20044 53001

Metar display script from Saratoga-Weather.org